Eleni K II — SVCB — position and weather

sailwx.info

Track history (hours):
 
Tides and Currents Weather Stations Pressure Air Temp Water Temp Dewpoint Dewpoint Depression Visibility Wind Speed Wind Dir Waves Ship Positions

Eleni K II

Last reported at 2017-Nov-16 22:29 UTC. Time now 2017-Nov-22 18:37 UTC.
Position N 38°20' E 022°40'.

; draft 5.6 m.

Type: Cargo ship. MMSI: 240189000.

Date/timePositionNaut miles runAvg speedWind from/ knotsBaromVisibWave heightAir tempDewpointWater temp
2017-Nov-16 22:29N 38°20' E 022°40'4 8.0
2017-Nov-16 22:00N 38°17' E 022°37'5 0.2
2017-Nov-15 16:28N 38°16' E 022°31'5 8.9
2017-Nov-15 15:52N 38°15' E 022°38'3 8.7
2017-Nov-15 15:31N 38°14' E 022°42'4 8.4
2017-Nov-15 15:00N 38°12' E 022°47'7 8.2
2017-Nov-15 14:09N 38°11' E 022°56'1 8.3
2017-Nov-15 14:00N 38°11' E 022°57'2 0.2
2017-Nov-15 05:00N 38°12' E 022°57'1 2.6
2017-Nov-15 04:30N 38°12' E 022°59'5 6.2
2017-Nov-15 03:45N 38°10' E 022°53'2 6.7
2017-Nov-15 03:28N 38°11' E 022°50'3 6.8
2017-Nov-15 03:00N 38°12' E 022°47'3 6.6
2017-Nov-15 02:31N 38°13' E 022°43'3 6.6
2017-Nov-15 02:00N 38°14' E 022°39'22 0.5
2017-Nov-13 02:00N 37°58' E 022°58'0 0.1
2017-Nov-13 01:30N 37°58' E 022°58'0 0.1
2017-Nov-13 01:00N 37°58' E 022°58'0 0.0
2017-Nov-13 00:30N 37°58' E 022°58'0 0.0
2017-Nov-13 00:00N 37°58' E 022°58'0 0.0
2017-Nov-12 23:30N 37°58' E 022°58'0 0.0
2017-Nov-12 23:00N 37°58' E 022°58'0 0.1
2017-Nov-12 22:30N 37°58' E 022°58'0 0.0
2017-Nov-12 22:00N 37°58' E 022°58'0 0.1
2017-Nov-12 21:30N 37°58' E 022°58'0 0.0
2017-Nov-12 21:00N 37°58' E 022°58'0 0.0
2017-Nov-12 20:30N 37°58' E 022°58'0 0.0
2017-Nov-12 20:01N 37°58' E 022°58'1 1.8
2017-Nov-12 19:30N 37°57' E 022°57'3 5.4
2017-Nov-12 19:00N 37°55' E 022°60'2 4.3
2017-Nov-12 18:30N 37°54' E 023°02'4 8.8
2017-Nov-12 18:00N 37°53' E 023°07'4 8.6
2017-Nov-12 17:30N 37°50' E 023°11'4 8.9
2017-Nov-12 17:00N 37°46' E 023°15'4 8.6
2017-Nov-12 16:30N 37°42' E 023°17'4 7.1
2017-Nov-12 16:00N 37°40' E 023°20'4 8.6
2017-Nov-12 15:30N 37°39' E 023°26'4 8.7
2017-Nov-12 15:00N 37°38' E 023°31'4 8.8
2017-Nov-12 14:30N 37°36' E 023°36'4 8.8
2017-Nov-12 14:00N 37°34' E 023°41'4 8.6
2017-Nov-12 13:29N 37°32' E 023°46'52 8.5
2017-Nov-12 07:20N 37°14' E 024°48'3 8.5
2017-Nov-12 07:00N 37°14' E 024°51'4 8.5
2017-Nov-12 06:30N 37°14' E 024°57'4 8.6
2017-Nov-12 06:00N 37°14' E 025°02'4 8.8
2017-Nov-12 05:30N 37°15' E 025°08'5 9.3
2017-Nov-12 05:00N 37°14' E 025°13'4 8.9
2017-Nov-12 04:30N 37°15' E 025°19'4 8.4
2017-Nov-12 04:00N 37°15' E 025°24'4 8.9
2017-Nov-12 03:30N 37°15' E 025°30'7 8.8
2017-Nov-12 02:43N 37°11' E 025°37'2 8.8
2017-Nov-12 02:30N 37°10' E 025°39'4 8.5
2017-Nov-12 02:00N 37°07' E 025°43'  
Track history (hours):
 
Tides and Currents Weather Stations Pressure Air Temp Water Temp Dewpoint Dewpoint Depression Visibility Wind Speed Wind Dir Waves Ship Positions

Eleni K II

Last reported at 2017-Nov-16 22:29 UTC. Time now 2017-Nov-22 18:38 UTC.
Position N 38°20' E 022°40'.

; draft 5.6 m.

Type: Cargo ship. MMSI: 240189000.

Date/timePositionNaut miles runAvg speedWind from/ knotsBaromVisibWave heightAir tempDewpointWater temp
2017-Nov-16 22:29N 38°20' E 022°40'4 8.0
2017-Nov-16 22:00N 38°17' E 022°37'5 0.2
2017-Nov-15 16:28N 38°16' E 022°31'5 8.9
2017-Nov-15 15:52N 38°15' E 022°38'3 8.7
2017-Nov-15 15:31N 38°14' E 022°42'4 8.4
2017-Nov-15 15:00N 38°12' E 022°47'7 8.2
2017-Nov-15 14:09N 38°11' E 022°56'1 8.3
2017-Nov-15 14:00N 38°11' E 022°57'2 0.2
2017-Nov-15 05:00N 38°12' E 022°57'1 2.6
2017-Nov-15 04:30N 38°12' E 022°59'5 6.2
2017-Nov-15 03:45N 38°10' E 022°53'2 6.7
2017-Nov-15 03:28N 38°11' E 022°50'3 6.8
2017-Nov-15 03:00N 38°12' E 022°47'3 6.6
2017-Nov-15 02:31N 38°13' E 022°43'3 6.6
2017-Nov-15 02:00N 38°14' E 022°39'22 0.5
2017-Nov-13 02:00N 37°58' E 022°58'0 0.1
2017-Nov-13 01:30N 37°58' E 022°58'0 0.1
2017-Nov-13 01:00N 37°58' E 022°58'0 0.0
2017-Nov-13 00:30N 37°58' E 022°58'0 0.0
2017-Nov-13 00:00N 37°58' E 022°58'0 0.0
2017-Nov-12 23:30N 37°58' E 022°58'0 0.0
2017-Nov-12 23:00N 37°58' E 022°58'0 0.1
2017-Nov-12 22:30N 37°58' E 022°58'0 0.0
2017-Nov-12 22:00N 37°58' E 022°58'0 0.1
2017-Nov-12 21:30N 37°58' E 022°58'0 0.0
2017-Nov-12 21:00N 37°58' E 022°58'0 0.0
2017-Nov-12 20:30N 37°58' E 022°58'0 0.0
2017-Nov-12 20:01N 37°58' E 022°58'1 1.8
2017-Nov-12 19:30N 37°57' E 022°57'3 5.4
2017-Nov-12 19:00N 37°55' E 022°60'2 4.3
2017-Nov-12 18:30N 37°54' E 023°02'4 8.8
2017-Nov-12 18:00N 37°53' E 023°07'4 8.6
2017-Nov-12 17:30N 37°50' E 023°11'4 8.9
2017-Nov-12 17:00N 37°46' E 023°15'4 8.6
2017-Nov-12 16:30N 37°42' E 023°17'4 7.1
2017-Nov-12 16:00N 37°40' E 023°20'4 8.6
2017-Nov-12 15:30N 37°39' E 023°26'4 8.7
2017-Nov-12 15:00N 37°38' E 023°31'4 8.8
2017-Nov-12 14:30N 37°36' E 023°36'4 8.8
2017-Nov-12 14:00N 37°34' E 023°41'4 8.6
2017-Nov-12 13:29N 37°32' E 023°46'52 8.5
2017-Nov-12 07:20N 37°14' E 024°48'3 8.5
2017-Nov-12 07:00N 37°14' E 024°51'4 8.5
2017-Nov-12 06:30N 37°14' E 024°57'4 8.6
2017-Nov-12 06:00N 37°14' E 025°02'4 8.8
2017-Nov-12 05:30N 37°15' E 025°08'5 9.3
2017-Nov-12 05:00N 37°14' E 025°13'4 8.9
2017-Nov-12 04:30N 37°15' E 025°19'4 8.4
2017-Nov-12 04:00N 37°15' E 025°24'4 8.9
2017-Nov-12 03:30N 37°15' E 025°30'7 8.8
2017-Nov-12 02:43N 37°11' E 025°37'2 8.8
2017-Nov-12 02:30N 37°10' E 025°39'4 8.5
2017-Nov-12 02:00N 37°07' E 025°43'  

Dump ship's entire track history